IZ1DME-3 Weather Reports


time (UTC)temp
F
wind
direction
speed
knots
gust
knots
rain 1hr
in
rain 24hr
in
rain mn
in
humidity
%
barometer
mb
20260508012709 53 0.0 0.0 0.00 0.00 0.00 89 1017.0
20260508010209 53 0.0 0.0 0.00 0.00 0.00 88 1017.1
20260508003710 53 0.0 0.0 0.00 0.00 0.00 86 1017.1
20260508001209 53 0.0 0.0 0.00 0.00 0.00 86 1017.2
20260507234710 54 0.0 0.0 0.00 0.00 0.00 85 1017.1
20260507232210 54 0.0 0.0 0.00 0.00 0.00 84 1017.1
20260507225709 55 0.0 0.0 0.00 0.00 0.00 83 1017.3
20260507223210 55 0.0 0.0 0.00 0.00 0.00 83 1017.2
20260507220709 55 0.0 0.0 0.00 0.00 0.00 82 1017.0
20260507214209 56 0.0 0.0 0.00 0.00 0.00 80 1016.7
20260507211709 57 0.0 0.0 0.00 0.00 0.00 80 1016.5
20260507205210 57 0.0 0.0 0.00 0.00 0.00 81 1016.3
20260507202710 58 0.0 0.0 0.00 0.00 0.00 81 1016.3
20260507200209 58 0.0 0.0 0.00 0.00 0.00 79 1016.1
20260507193710 60 0.0 0.0 0.00 0.00 0.00 77 1015.2
20260507191209 60 0.0 0.0 0.00 0.00 0.00 73 1014.8
20260507184710 61 0.0 0.0 0.00 0.00 0.00 71 1014.6
20260507182210 61 0.0 0.0 0.00 0.00 0.00 69 1014.4
20260507175709 62 0.0 0.0 0.00 0.00 0.00 68 1014.2
20260507173211 62 0.0 0.0 0.00 0.00 0.00 69 1014.0
20260507170710 63 0.0 0.0 0.00 0.00 0.00 65 1014.0
20260507164210 64 0.0 0.0 0.00 0.00 0.00 65 1013.7
20260507161710 64 0.0 0.0 0.00 0.00 0.00 62 1013.7
20260507155209 66 0.0 0.0 0.00 0.00 0.00 54 1013.2
20260507152710 66 0.0 0.0 0.00 0.00 0.00 53 1013.1
20260507150210 67 0.0 0.0 0.00 0.00 0.00 52 1013.4
20260507143710 68 0.0 0.0 0.00 0.00 0.00 52 1013.3
20260507141209 67 0.0 0.0 0.00 0.00 0.00 54 1013.5
20260507134710 65 0.0 0.0 0.00 0.00 0.00 55 1014.0
20260507132209 66 0.0 0.0 0.00 0.00 0.00 53 1014.2
20260507125710 66 0.0 0.0 0.00 0.00 0.00 54 1014.1
20260507123210 67 0.0 0.0 0.00 0.00 0.00 54 1014.2
20260507120710 66 0.0 0.0 0.00 0.00 0.00 58 1014.4
20260507114210 63 0.0 0.0 0.00 0.00 0.00 64 1015.1
20260507111709 62 0.0 0.0 0.00 0.00 0.00 62 1015.5
20260507105210 62 0.0 0.0 0.00 0.00 0.00 64 1015.8
20260507102710 59 0.0 0.0 0.00 0.00 0.00 70 1016.1
20260507100210 59 0.0 0.0 0.00 0.00 0.00 72 1016.3
20260507093710 59 0.0 0.0 0.00 0.00 0.00 74 1016.2
20260507091210 58 0.0 0.0 0.00 0.00 0.00 78 1016.1
20260507084710 56 0.0 0.0 0.00 0.00 0.00 81 1016.3
20260507082210 55 0.0 0.0 0.00 0.00 0.00 81 1016.3
20260507075711 55 0.0 0.0 0.00 0.00 0.00 82 1016.2
20260507073210 55 0.0 0.0 0.00 0.00 0.00 81 1016.2
20260507070710 54 0.0 0.0 0.00 0.00 0.00 83 1016.4
20260507064210 53 0.0 0.0 0.00 0.00 0.00 87 1016.2
20260507061710 52 0.0 0.0 0.00 0.00 0.00 88 1016.2
20260507055210 52 0.0 0.0 0.00 0.00 0.00 89 1016.0
20260507052711 52 0.0 0.0 0.00 0.00 0.00 90 1015.6
20260507050210 51 0.0 0.0 0.00 0.00 0.00 90 1015.3
20260507043710 51 0.0 0.0 0.00 0.00 0.00 90 1015.1
20260507041210 51 0.0 0.0 0.00 0.00 0.00 91 1014.8
20260507034710 52 0.0 0.0 0.00 0.00 0.00 94 1014.8
20260507032211 51 0.0 0.0 0.00 0.00 0.00 96 1014.6
20260507025711 52 0.0 0.0 0.00 0.00 0.00 96 1014.6
20260507023211 52 0.0 0.0 0.00 0.00 0.00 95 1014.5
20260507020710 53 0.0 0.0 0.00 0.00 0.00 93 1014.3
20260507014211 53 0.0 0.0 0.00 0.00 0.00 92 1014.2